CheckWX is a tool to help pilots better visualize weather data.  It is not intended as a substitute for an official pre-flight weather briefing.

04:48:05 UTC

KLFT TAF
Lafayette Regional / Paul Fournet Field Airport
Lafayette, Louisiana, USA
KLFT 100205Z 1002/1024 17007KT 6SM BR VCSH FEW005 SCT025 BKN035 TEMPO 1002/1006 BKN005 OVC025 FM100600 VRB05KT 6SM BR VCSH SCT005 BKN015 TEMPO 1008/1012 3SM SHRA OVC005 FM101200 33009KT 6SM -SHRA OVC008 FM101600 36014G22KT 6SM -SHRA OVC008 FM102100 03017G25KT 6SM -SHRA OVC008

Dec-10@
02:00 UTC

Dec-10 @ 02:00 UTC

Dec-10@
06:00 UTC

Dec-10 @ 06:00 UTC

KLFT 100205Z 1002/1024 17007KT 6SM BR VCSH FEW005 SCT025 BKN035
Wind
  • 170° at 7 KTS
Conditions
Mist
Cloud Levels
  • Few at 500' AGL
  • Scattered at 2,500' AGL
  • Broken at 3,500' AGL

Dec-10@
02:00 UTC

Dec-10 @ 02:00 UTC

Dec-10@
06:00 UTC

Dec-10 @ 06:00 UTC

TEMPO 1002/1006 BKN005 OVC025

Temporary

Temporary Changes expected for less than half the time period

Cloud Levels
  • Broken at 500' AGL
  • Overcast at 2,500' AGL

Dec-10@
06:00 UTC

Dec-10 @ 06:00 UTC

Dec-10@
12:00 UTC

Dec-10 @ 12:00 UTC

FM100600 VRB05KT 6SM BR VCSH SCT005 BKN015

From

From Standard forecast or significant change

Wind
  • Variable at 5 KTS
Conditions
Mist
Cloud Levels
  • Scattered at 500' AGL
  • Broken at 1,500' AGL

Dec-10@
08:00 UTC

Dec-10 @ 08:00 UTC

Dec-10@
12:00 UTC

Dec-10 @ 12:00 UTC

TEMPO 1008/1012 3SM SHRA OVC005

Temporary

Temporary Changes expected for less than half the time period

Conditions
Rain
Cloud Levels
  • Overcast at 500' AGL

Dec-10@
12:00 UTC

Dec-10 @ 12:00 UTC

Dec-10@
16:00 UTC

Dec-10 @ 16:00 UTC

FM101200 33009KT 6SM -SHRA OVC008

From

From Standard forecast or significant change

Wind
  • 330° at 9 KTS
Conditions
Light Rain
Cloud Levels
  • Overcast at 800' AGL

Dec-10@
16:00 UTC

Dec-10 @ 16:00 UTC

Dec-10@
21:00 UTC

Dec-10 @ 21:00 UTC

FM101600 36014G22KT 6SM -SHRA OVC008

From

From Standard forecast or significant change

Wind
  • 360° at 14 KTS
  • {Gusting to 22 KTS
Conditions
Light Rain
Cloud Levels
  • Overcast at 800' AGL

Dec-10@
21:00 UTC

Dec-10 @ 21:00 UTC

Dec-11@
00:00 UTC

Dec-11 @ 00:00 UTC

FM102100 03017G25KT 6SM -SHRA OVC008

From

From Standard forecast or significant change

Wind
  • 030° at 17 KTS
  • {Gusting to 25 KTS
Conditions
Light Rain
Cloud Levels
  • Overcast at 800' AGL